sensor_id;sensor_type;location;lat;lon;timestamp;P1;durP1;ratioP1;P2;durP2;ratioP2
34872;SDS011;21084;51.098;14.506;2023-06-22T00:01:04;15.23;;;12.00;;
34872;SDS011;21084;51.098;14.506;2023-06-22T00:03:33;14.90;;;11.35;;
34872;SDS011;21084;51.098;14.506;2023-06-22T00:06:02;14.63;;;11.48;;
34872;SDS011;21084;51.098;14.506;2023-06-22T00:08:32;18.45;;;12.02;;
34872;SDS011;21084;51.098;14.506;2023-06-22T00:11:01;16.55;;;11.10;;
34872;SDS011;21084;51.098;14.506;2023-06-22T00:13:30;14.23;;;11.23;;
34872;SDS011;21084;51.098;14.506;2023-06-22T00:15:58;17.60;;;11.38;;
34872;SDS011;21084;51.098;14.506;2023-06-22T00:18:27;15.43;;;12.38;;
34872;SDS011;21084;51.098;14.506;2023-06-22T00:20:57;17.05;;;11.50;;
34872;SDS011;21084;51.098;14.506;2023-06-22T00:23:27;14.05;;;11.48;;
34872;SDS011;21084;51.098;14.506;2023-06-22T00:26:04;14.52;;;11.77;;
34872;SDS011;21084;51.098;14.506;2023-06-22T00:28:34;16.85;;;11.85;;
34872;SDS011;21084;51.098;14.506;2023-06-22T00:31:02;19.02;;;11.82;;
34872;SDS011;21084;51.098;14.506;2023-06-22T00:33:31;13.82;;;11.52;;
34872;SDS011;21084;51.098;14.506;2023-06-22T00:36:00;17.30;;;12.15;;
34872;SDS011;21084;51.098;14.506;2023-06-22T00:38:29;17.90;;;12.07;;
34872;SDS011;21084;51.098;14.506;2023-06-22T00:40:58;14.47;;;11.07;;
34872;SDS011;21084;51.098;14.506;2023-06-22T00:43:29;18.35;;;12.15;;
34872;SDS011;21084;51.098;14.506;2023-06-22T00:45:58;16.70;;;12.18;;
34872;SDS011;21084;51.098;14.506;2023-06-22T00:48:27;18.52;;;12.25;;
34872;SDS011;21084;51.098;14.506;2023-06-22T00:50:55;16.08;;;12.40;;
34872;SDS011;21084;51.098;14.506;2023-06-22T00:53:24;15.85;;;12.95;;
34872;SDS011;21084;51.098;14.506;2023-06-22T00:55:53;22.65;;;13.48;;
34872;SDS011;21084;51.098;14.506;2023-06-22T00:58:22;20.33;;;13.53;;
34872;SDS011;21084;51.098;14.506;2023-06-22T01:03:22;19.05;;;13.25;;
34872;SDS011;21084;51.098;14.506;2023-06-22T01:05:51;18.42;;;12.88;;
34872;SDS011;21084;51.098;14.506;2023-06-22T01:08:24;17.15;;;12.50;;
34872;SDS011;21084;51.098;14.506;2023-06-22T01:11:00;16.15;;;11.95;;
34872;SDS011;21084;51.098;14.506;2023-06-22T01:13:35;17.83;;;11.98;;
34872;SDS011;21084;51.098;14.506;2023-06-22T01:16:12;16.98;;;12.60;;
34872;SDS011;21084;51.098;14.506;2023-06-22T01:18:45;15.07;;;11.50;;
34872;SDS011;21084;51.098;14.506;2023-06-22T01:21:19;16.48;;;12.02;;
34872;SDS011;21084;51.098;14.506;2023-06-22T01:23:55;15.90;;;12.07;;
34872;SDS011;21084;51.098;14.506;2023-06-22T01:26:35;16.75;;;11.63;;
34872;SDS011;21084;51.098;14.506;2023-06-22T01:29:08;16.58;;;12.65;;
34872;SDS011;21084;51.098;14.506;2023-06-22T01:31:41;17.35;;;13.02;;
34872;SDS011;21084;51.098;14.506;2023-06-22T01:34:12;18.05;;;12.52;;
34872;SDS011;21084;51.098;14.506;2023-06-22T01:36:42;18.10;;;12.90;;
34872;SDS011;21084;51.098;14.506;2023-06-22T01:39:11;17.10;;;12.60;;
34872;SDS011;21084;51.098;14.506;2023-06-22T01:41:41;15.57;;;12.13;;
34872;SDS011;21084;51.098;14.506;2023-06-22T01:44:12;18.13;;;12.43;;
34872;SDS011;21084;51.098;14.506;2023-06-22T01:46:41;18.50;;;13.00;;
34872;SDS011;21084;51.098;14.506;2023-06-22T01:49:10;15.20;;;12.02;;
34872;SDS011;21084;51.098;14.506;2023-06-22T01:51:39;16.93;;;12.10;;
34872;SDS011;21084;51.098;14.506;2023-06-22T01:54:08;17.73;;;13.57;;
34872;SDS011;21084;51.098;14.506;2023-06-22T01:56:37;18.45;;;12.68;;
34872;SDS011;21084;51.098;14.506;2023-06-22T01:59:09;22.13;;;12.85;;
34872;SDS011;21084;51.098;14.506;2023-06-22T02:01:44;21.58;;;13.40;;
34872;SDS011;21084;51.098;14.506;2023-06-22T02:04:24;18.80;;;12.80;;
34872;SDS011;21084;51.098;14.506;2023-06-22T02:06:56;16.65;;;12.40;;
34872;SDS011;21084;51.098;14.506;2023-06-22T02:09:29;16.83;;;12.23;;
34872;SDS011;21084;51.098;14.506;2023-06-22T02:11:59;20.67;;;13.65;;
34872;SDS011;21084;51.098;14.506;2023-06-22T02:14:30;18.40;;;12.55;;
34872;SDS011;21084;51.098;14.506;2023-06-22T02:17:01;18.85;;;13.02;;
34872;SDS011;21084;51.098;14.506;2023-06-22T02:19:31;21.20;;;13.48;;
34872;SDS011;21084;51.098;14.506;2023-06-22T02:22:08;15.68;;;12.55;;
34872;SDS011;21084;51.098;14.506;2023-06-22T02:24:36;17.08;;;13.70;;
34872;SDS011;21084;51.098;14.506;2023-06-22T02:27:05;18.77;;;12.88;;
34872;SDS011;21084;51.098;14.506;2023-06-22T02:29:35;16.48;;;12.07;;
34872;SDS011;21084;51.098;14.506;2023-06-22T02:35:52;22.80;;;14.05;;
34872;SDS011;21084;51.098;14.506;2023-06-22T02:38:21;21.20;;;13.18;;
34872;SDS011;21084;51.098;14.506;2023-06-22T02:43:22;17.13;;;12.52;;
34872;SDS011;21084;51.098;14.506;2023-06-22T02:45:51;20.17;;;13.50;;
34872;SDS011;21084;51.098;14.506;2023-06-22T02:48:20;15.77;;;13.23;;
34872;SDS011;21084;51.098;14.506;2023-06-22T02:50:49;18.02;;;13.13;;
34872;SDS011;21084;51.098;14.506;2023-06-22T02:53:19;16.50;;;13.10;;
34872;SDS011;21084;51.098;14.506;2023-06-22T02:55:48;20.75;;;13.82;;
34872;SDS011;21084;51.098;14.506;2023-06-22T02:58:17;18.70;;;13.30;;
34872;SDS011;21084;51.098;14.506;2023-06-22T03:00:46;21.48;;;13.27;;
34872;SDS011;21084;51.098;14.506;2023-06-22T03:03:15;22.40;;;13.75;;
34872;SDS011;21084;51.098;14.506;2023-06-22T03:05:44;22.88;;;13.80;;
34872;SDS011;21084;51.098;14.506;2023-06-22T03:08:13;17.83;;;13.30;;
34872;SDS011;21084;51.098;14.506;2023-06-22T03:10:44;20.15;;;13.60;;
34872;SDS011;21084;51.098;14.506;2023-06-22T03:13:13;18.80;;;13.55;;
34872;SDS011;21084;51.098;14.506;2023-06-22T03:15:42;19.17;;;14.33;;
34872;SDS011;21084;51.098;14.506;2023-06-22T03:18:11;16.98;;;14.15;;
34872;SDS011;21084;51.098;14.506;2023-06-22T03:20:40;17.93;;;13.43;;
34872;SDS011;21084;51.098;14.506;2023-06-22T03:23:09;22.52;;;14.32;;
34872;SDS011;21084;51.098;14.506;2023-06-22T03:25:38;20.10;;;14.20;;
34872;SDS011;21084;51.098;14.506;2023-06-22T03:28:09;21.17;;;14.07;;
34872;SDS011;21084;51.098;14.506;2023-06-22T03:30:38;20.73;;;14.40;;
34872;SDS011;21084;51.098;14.506;2023-06-22T03:33:08;17.92;;;13.93;;
34872;SDS011;21084;51.098;14.506;2023-06-22T03:35:36;23.05;;;13.20;;
34872;SDS011;21084;51.098;14.506;2023-06-22T03:38:05;20.23;;;13.13;;
34872;SDS011;21084;51.098;14.506;2023-06-22T03:40:34;22.85;;;14.07;;
34872;SDS011;21084;51.098;14.506;2023-06-22T03:43:03;18.90;;;13.98;;
34872;SDS011;21084;51.098;14.506;2023-06-22T03:45:33;25.63;;;15.13;;
34872;SDS011;21084;51.098;14.506;2023-06-22T03:48:02;27.33;;;15.85;;
34872;SDS011;21084;51.098;14.506;2023-06-22T03:50:31;20.80;;;15.50;;
34872;SDS011;21084;51.098;14.506;2023-06-22T03:53:00;22.70;;;15.40;;
34872;SDS011;21084;51.098;14.506;2023-06-22T03:55:29;23.65;;;14.93;;
34872;SDS011;21084;51.098;14.506;2023-06-22T03:57:58;22.15;;;13.93;;
34872;SDS011;21084;51.098;14.506;2023-06-22T04:00:34;26.77;;;14.00;;
34872;SDS011;21084;51.098;14.506;2023-06-22T04:03:02;22.95;;;15.27;;
34872;SDS011;21084;51.098;14.506;2023-06-22T04:05:31;24.65;;;14.73;;
34872;SDS011;21084;51.098;14.506;2023-06-22T04:08:00;20.88;;;14.32;;
34872;SDS011;21084;51.098;14.506;2023-06-22T04:10:29;21.52;;;13.88;;
34872;SDS011;21084;51.098;14.506;2023-06-22T04:12:58;19.95;;;14.18;;
34872;SDS011;21084;51.098;14.506;2023-06-22T04:15:27;16.60;;;13.00;;
34872;SDS011;21084;51.098;14.506;2023-06-22T04:17:57;19.70;;;14.40;;
34872;SDS011;21084;51.098;14.506;2023-06-22T04:20:26;24.80;;;14.05;;
34872;SDS011;21084;51.098;14.506;2023-06-22T04:22:56;21.30;;;14.25;;
34872;SDS011;21084;51.098;14.506;2023-06-22T04:25:24;23.90;;;14.35;;
34872;SDS011;21084;51.098;14.506;2023-06-22T04:27:53;21.33;;;14.32;;
34872;SDS011;21084;51.098;14.506;2023-06-22T04:30:22;17.33;;;13.67;;
34872;SDS011;21084;51.098;14.506;2023-06-22T04:32:51;23.98;;;13.88;;
34872;SDS011;21084;51.098;14.506;2023-06-22T04:35:26;24.33;;;16.08;;
34872;SDS011;21084;51.098;14.506;2023-06-22T04:37:57;18.73;;;14.38;;
34872;SDS011;21084;51.098;14.506;2023-06-22T04:40:26;22.23;;;14.85;;
34872;SDS011;21084;51.098;14.506;2023-06-22T04:42:55;17.05;;;13.00;;
34872;SDS011;21084;51.098;14.506;2023-06-22T04:45:25;26.00;;;13.73;;
34872;SDS011;21084;51.098;14.506;2023-06-22T04:47:53;15.70;;;12.77;;
34872;SDS011;21084;51.098;14.506;2023-06-22T04:50:22;22.77;;;13.65;;
34872;SDS011;21084;51.098;14.506;2023-06-22T04:52:53;19.50;;;13.73;;
34872;SDS011;21084;51.098;14.506;2023-06-22T04:55:22;18.75;;;14.75;;
34872;SDS011;21084;51.098;14.506;2023-06-22T04:57:52;20.45;;;15.07;;
34872;SDS011;21084;51.098;14.506;2023-06-22T05:00:21;20.60;;;15.15;;
34872;SDS011;21084;51.098;14.506;2023-06-22T05:02:53;19.75;;;14.50;;
34872;SDS011;21084;51.098;14.506;2023-06-22T05:05:47;21.20;;;14.23;;
34872;SDS011;21084;51.098;14.506;2023-06-22T05:08:32;17.50;;;12.90;;
34872;SDS011;21084;51.098;14.506;2023-06-22T05:11:19;17.35;;;13.93;;
34872;SDS011;21084;51.098;14.506;2023-06-22T05:14:05;19.30;;;13.63;;
34872;SDS011;21084;51.098;14.506;2023-06-22T05:16:34;19.85;;;12.30;;
34872;SDS011;21084;51.098;14.506;2023-06-22T05:19:03;20.92;;;13.15;;
34872;SDS011;21084;51.098;14.506;2023-06-22T05:21:32;24.73;;;13.70;;
34872;SDS011;21084;51.098;14.506;2023-06-22T05:24:02;18.77;;;12.45;;
34872;SDS011;21084;51.098;14.506;2023-06-22T05:26:32;17.75;;;13.50;;
34872;SDS011;21084;51.098;14.506;2023-06-22T05:29:02;17.98;;;12.35;;
34872;SDS011;21084;51.098;14.506;2023-06-22T05:31:31;17.10;;;12.48;;
34872;SDS011;21084;51.098;14.506;2023-06-22T05:34:00;16.95;;;12.65;;
34872;SDS011;21084;51.098;14.506;2023-06-22T05:36:28;17.20;;;12.65;;
34872;SDS011;21084;51.098;14.506;2023-06-22T05:38:57;18.80;;;13.65;;
34872;SDS011;21084;51.098;14.506;2023-06-22T05:41:27;19.83;;;12.97;;
34872;SDS011;21084;51.098;14.506;2023-06-22T05:43:56;19.98;;;13.52;;
34872;SDS011;21084;51.098;14.506;2023-06-22T05:46:25;21.23;;;13.75;;
34872;SDS011;21084;51.098;14.506;2023-06-22T05:48:54;20.37;;;13.63;;
34872;SDS011;21084;51.098;14.506;2023-06-22T05:51:23;19.00;;;15.02;;
34872;SDS011;21084;51.098;14.506;2023-06-22T05:53:51;16.30;;;13.30;;
34872;SDS011;21084;51.098;14.506;2023-06-22T05:56:20;19.60;;;14.18;;
34872;SDS011;21084;51.098;14.506;2023-06-22T05:58:50;19.23;;;13.95;;
34872;SDS011;21084;51.098;14.506;2023-06-22T06:01:19;17.30;;;14.85;;
34872;SDS011;21084;51.098;14.506;2023-06-22T06:03:48;20.43;;;14.63;;
34872;SDS011;21084;51.098;14.506;2023-06-22T06:06:19;16.60;;;13.55;;
34872;SDS011;21084;51.098;14.506;2023-06-22T06:08:49;19.52;;;14.13;;
34872;SDS011;21084;51.098;14.506;2023-06-22T06:11:18;20.88;;;13.05;;
34872;SDS011;21084;51.098;14.506;2023-06-22T06:13:46;18.08;;;13.40;;
34872;SDS011;21084;51.098;14.506;2023-06-22T06:16:16;18.55;;;13.80;;
34872;SDS011;21084;51.098;14.506;2023-06-22T06:18:45;20.45;;;13.93;;
34872;SDS011;21084;51.098;14.506;2023-06-22T06:23:44;24.23;;;16.50;;
34872;SDS011;21084;51.098;14.506;2023-06-22T06:28:43;23.85;;;16.35;;
34872;SDS011;21084;51.098;14.506;2023-06-22T06:31:12;23.50;;;16.17;;
34872;SDS011;21084;51.098;14.506;2023-06-22T06:33:46;19.15;;;14.63;;
34872;SDS011;21084;51.098;14.506;2023-06-22T06:36:15;19.20;;;14.70;;
34872;SDS011;21084;51.098;14.506;2023-06-22T06:38:44;20.88;;;14.52;;
34872;SDS011;21084;51.098;14.506;2023-06-22T06:41:14;20.13;;;13.65;;
34872;SDS011;21084;51.098;14.506;2023-06-22T06:46:12;22.42;;;14.23;;
34872;SDS011;21084;51.098;14.506;2023-06-22T06:48:40;18.42;;;14.55;;
34872;SDS011;21084;51.098;14.506;2023-06-22T06:51:11;19.58;;;14.15;;
34872;SDS011;21084;51.098;14.506;2023-06-22T06:53:43;19.35;;;13.68;;
34872;SDS011;21084;51.098;14.506;2023-06-22T06:56:11;17.83;;;14.05;;
34872;SDS011;21084;51.098;14.506;2023-06-22T06:58:42;19.52;;;13.70;;
34872;SDS011;21084;51.098;14.506;2023-06-22T07:01:12;17.33;;;13.43;;
34872;SDS011;21084;51.098;14.506;2023-06-22T07:03:41;16.80;;;13.55;;
34872;SDS011;21084;51.098;14.506;2023-06-22T07:08:40;16.75;;;13.43;;
34872;SDS011;21084;51.098;14.506;2023-06-22T07:11:09;14.37;;;12.30;;
34872;SDS011;21084;51.098;14.506;2023-06-22T07:16:07;18.85;;;13.88;;
34872;SDS011;21084;51.098;14.506;2023-06-22T07:18:36;28.30;;;15.00;;
34872;SDS011;21084;51.098;14.506;2023-06-22T07:21:07;18.08;;;14.02;;
34872;SDS011;21084;51.098;14.506;2023-06-22T07:23:38;19.05;;;14.43;;
34872;SDS011;21084;51.098;14.506;2023-06-22T07:26:08;18.83;;;14.40;;
34872;SDS011;21084;51.098;14.506;2023-06-22T07:28:39;16.80;;;13.32;;
34872;SDS011;21084;51.098;14.506;2023-06-22T07:33:37;16.60;;;12.77;;
34872;SDS011;21084;51.098;14.506;2023-06-22T07:36:10;14.70;;;11.95;;
34872;SDS011;21084;51.098;14.506;2023-06-22T07:38:41;18.00;;;11.60;;
34872;SDS011;21084;51.098;14.506;2023-06-22T07:41:09;13.65;;;10.68;;
34872;SDS011;21084;51.098;14.506;2023-06-22T07:43:38;13.13;;;10.20;;
34872;SDS011;21084;51.098;14.506;2023-06-22T07:46:07;13.90;;;9.95;;
34872;SDS011;21084;51.098;14.506;2023-06-22T07:48:36;13.47;;;10.83;;
34872;SDS011;21084;51.098;14.506;2023-06-22T07:51:06;12.98;;;10.18;;
34872;SDS011;21084;51.098;14.506;2023-06-22T07:53:35;13.45;;;10.07;;
34872;SDS011;21084;51.098;14.506;2023-06-22T07:56:05;12.67;;;10.20;;
34872;SDS011;21084;51.098;14.506;2023-06-22T07:58:34;14.93;;;9.45;;
34872;SDS011;21084;51.098;14.506;2023-06-22T08:01:02;11.73;;;9.45;;
34872;SDS011;21084;51.098;14.506;2023-06-22T08:03:33;10.57;;;9.48;;
34872;SDS011;21084;51.098;14.506;2023-06-22T08:06:01;12.77;;;9.27;;
34872;SDS011;21084;51.098;14.506;2023-06-22T08:08:30;11.05;;;8.55;;
34872;SDS011;21084;51.098;14.506;2023-06-22T08:10:59;10.63;;;9.52;;
34872;SDS011;21084;51.098;14.506;2023-06-22T08:13:29;15.07;;;9.82;;
34872;SDS011;21084;51.098;14.506;2023-06-22T08:15:58;19.33;;;9.63;;
34872;SDS011;21084;51.098;14.506;2023-06-22T08:18:32;13.00;;;9.00;;
34872;SDS011;21084;51.098;14.506;2023-06-22T08:21:01;12.00;;;9.32;;
34872;SDS011;21084;51.098;14.506;2023-06-22T08:23:32;9.82;;;8.80;;
34872;SDS011;21084;51.098;14.506;2023-06-22T08:26:00;9.45;;;8.45;;
34872;SDS011;21084;51.098;14.506;2023-06-22T08:28:31;11.77;;;8.70;;
34872;SDS011;21084;51.098;14.506;2023-06-22T08:31:00;14.23;;;8.13;;
34872;SDS011;21084;51.098;14.506;2023-06-22T08:33:29;10.52;;;8.38;;
34872;SDS011;21084;51.098;14.506;2023-06-22T08:35:59;11.30;;;8.68;;
34872;SDS011;21084;51.098;14.506;2023-06-22T08:40:57;10.67;;;8.60;;
34872;SDS011;21084;51.098;14.506;2023-06-22T08:43:26;10.43;;;8.50;;
34872;SDS011;21084;51.098;14.506;2023-06-22T08:45:56;9.57;;;8.20;;
34872;SDS011;21084;51.098;14.506;2023-06-22T08:48:26;13.30;;;8.98;;
34872;SDS011;21084;51.098;14.506;2023-06-22T08:50:55;10.18;;;8.55;;
34872;SDS011;21084;51.098;14.506;2023-06-22T08:53:23;9.45;;;8.55;;
34872;SDS011;21084;51.098;14.506;2023-06-22T08:55:52;9.57;;;8.20;;
34872;SDS011;21084;51.098;14.506;2023-06-22T08:58:21;11.83;;;9.00;;
34872;SDS011;21084;51.098;14.506;2023-06-22T09:00:51;9.15;;;7.95;;
34872;SDS011;21084;51.098;14.506;2023-06-22T09:03:21;10.02;;;8.70;;
34872;SDS011;21084;51.098;14.506;2023-06-22T09:05:53;12.25;;;8.18;;
34872;SDS011;21084;51.098;14.506;2023-06-22T09:08:22;11.68;;;9.30;;
34872;SDS011;21084;51.098;14.506;2023-06-22T09:10:51;11.55;;;8.85;;
34872;SDS011;21084;51.098;14.506;2023-06-22T09:13:20;11.60;;;8.70;;
34872;SDS011;21084;51.098;14.506;2023-06-22T09:15:49;9.65;;;8.07;;
34872;SDS011;21084;51.098;14.506;2023-06-22T09:18:20;11.63;;;8.82;;
34872;SDS011;21084;51.098;14.506;2023-06-22T09:20:49;10.65;;;8.50;;
34872;SDS011;21084;51.098;14.506;2023-06-22T09:23:18;10.95;;;7.85;;
34872;SDS011;21084;51.098;14.506;2023-06-22T09:25:47;8.80;;;7.80;;
34872;SDS011;21084;51.098;14.506;2023-06-22T09:28:16;10.63;;;7.70;;
34872;SDS011;21084;51.098;14.506;2023-06-22T09:30:45;10.40;;;7.65;;
34872;SDS011;21084;51.098;14.506;2023-06-22T09:33:14;11.67;;;8.07;;
34872;SDS011;21084;51.098;14.506;2023-06-22T09:35:44;11.07;;;8.23;;
34872;SDS011;21084;51.098;14.506;2023-06-22T09:38:13;10.43;;;8.50;;
34872;SDS011;21084;51.098;14.506;2023-06-22T09:40:42;9.57;;;8.52;;
34872;SDS011;21084;51.098;14.506;2023-06-22T09:43:11;9.07;;;8.15;;
34872;SDS011;21084;51.098;14.506;2023-06-22T09:45:40;13.27;;;8.25;;
34872;SDS011;21084;51.098;14.506;2023-06-22T09:48:09;10.85;;;8.13;;
34872;SDS011;21084;51.098;14.506;2023-06-22T09:50:38;12.88;;;8.57;;
34872;SDS011;21084;51.098;14.506;2023-06-22T09:53:08;10.32;;;8.27;;
34872;SDS011;21084;51.098;14.506;2023-06-22T09:55:37;13.70;;;8.25;;
34872;SDS011;21084;51.098;14.506;2023-06-22T09:58:06;10.50;;;8.43;;
34872;SDS011;21084;51.098;14.506;2023-06-22T10:00:35;10.68;;;8.27;;
34872;SDS011;21084;51.098;14.506;2023-06-22T10:03:04;8.80;;;7.55;;
34872;SDS011;21084;51.098;14.506;2023-06-22T10:08:02;9.55;;;8.32;;
34872;SDS011;21084;51.098;14.506;2023-06-22T10:13:02;12.45;;;7.55;;
34872;SDS011;21084;51.098;14.506;2023-06-22T10:15:36;15.35;;;8.23;;
34872;SDS011;21084;51.098;14.506;2023-06-22T10:18:05;9.60;;;8.20;;
34872;SDS011;21084;51.098;14.506;2023-06-22T10:20:34;9.88;;;8.43;;
34872;SDS011;21084;51.098;14.506;2023-06-22T10:23:03;8.70;;;7.75;;
34872;SDS011;21084;51.098;14.506;2023-06-22T10:25:33;10.20;;;8.15;;
34872;SDS011;21084;51.098;14.506;2023-06-22T10:28:02;12.27;;;7.68;;
34872;SDS011;21084;51.098;14.506;2023-06-22T10:30:31;10.07;;;8.45;;
34872;SDS011;21084;51.098;14.506;2023-06-22T10:33:00;14.27;;;8.98;;
34872;SDS011;21084;51.098;14.506;2023-06-22T10:35:28;11.32;;;8.68;;
34872;SDS011;21084;51.098;14.506;2023-06-22T10:37:58;11.15;;;8.20;;
34872;SDS011;21084;51.098;14.506;2023-06-22T10:42:57;13.65;;;8.70;;
34872;SDS011;21084;51.098;14.506;2023-06-22T10:45:26;10.18;;;7.60;;
34872;SDS011;21084;51.098;14.506;2023-06-22T10:47:56;13.48;;;8.88;;
34872;SDS011;21084;51.098;14.506;2023-06-22T10:52:53;10.40;;;8.07;;
34872;SDS011;21084;51.098;14.506;2023-06-22T10:55:26;10.88;;;8.55;;
34872;SDS011;21084;51.098;14.506;2023-06-22T10:58:14;10.07;;;8.68;;
34872;SDS011;21084;51.098;14.506;2023-06-22T11:00:43;14.93;;;8.35;;
34872;SDS011;21084;51.098;14.506;2023-06-22T11:03:11;10.25;;;8.57;;
34872;SDS011;21084;51.098;14.506;2023-06-22T11:05:41;12.60;;;8.80;;
34872;SDS011;21084;51.098;14.506;2023-06-22T11:08:10;11.20;;;8.07;;
34872;SDS011;21084;51.098;14.506;2023-06-22T11:10:39;13.60;;;8.68;;
34872;SDS011;21084;51.098;14.506;2023-06-22T11:15:39;10.52;;;8.23;;
34872;SDS011;21084;51.098;14.506;2023-06-22T11:18:08;10.20;;;7.88;;
34872;SDS011;21084;51.098;14.506;2023-06-22T11:20:37;16.02;;;8.77;;
34872;SDS011;21084;51.098;14.506;2023-06-22T11:23:07;11.07;;;7.68;;
34872;SDS011;21084;51.098;14.506;2023-06-22T11:28:05;10.05;;;8.45;;
34872;SDS011;21084;51.098;14.506;2023-06-22T11:33:04;8.35;;;7.53;;
34872;SDS011;21084;51.098;14.506;2023-06-22T11:35:33;9.35;;;7.60;;
34872;SDS011;21084;51.098;14.506;2023-06-22T11:38:02;10.25;;;7.25;;
34872;SDS011;21084;51.098;14.506;2023-06-22T11:40:32;8.13;;;7.32;;
34872;SDS011;21084;51.098;14.506;2023-06-22T11:45:29;9.95;;;7.35;;
34872;SDS011;21084;51.098;14.506;2023-06-22T11:47:58;9.93;;;7.45;;
34872;SDS011;21084;51.098;14.506;2023-06-22T11:50:29;9.10;;;7.10;;
34872;SDS011;21084;51.098;14.506;2023-06-22T11:53:02;9.98;;;6.80;;
34872;SDS011;21084;51.098;14.506;2023-06-22T11:55:31;9.43;;;6.97;;
34872;SDS011;21084;51.098;14.506;2023-06-22T11:58:00;8.90;;;7.30;;
34872;SDS011;21084;51.098;14.506;2023-06-22T12:00:30;10.40;;;7.80;;
34872;SDS011;21084;51.098;14.506;2023-06-22T12:03:16;9.43;;;6.47;;
34872;SDS011;21084;51.098;14.506;2023-06-22T12:05:47;8.88;;;7.43;;
34872;SDS011;21084;51.098;14.506;2023-06-22T12:08:28;9.60;;;7.72;;
34872;SDS011;21084;51.098;14.506;2023-06-22T12:10:57;10.05;;;6.93;;
34872;SDS011;21084;51.098;14.506;2023-06-22T12:13:26;8.25;;;6.97;;
34872;SDS011;21084;51.098;14.506;2023-06-22T12:15:55;8.88;;;7.70;;
34872;SDS011;21084;51.098;14.506;2023-06-22T12:18:24;10.75;;;7.05;;
34872;SDS011;21084;51.098;14.506;2023-06-22T12:20:54;9.95;;;7.18;;
34872;SDS011;21084;51.098;14.506;2023-06-22T12:23:23;9.48;;;7.78;;
34872;SDS011;21084;51.098;14.506;2023-06-22T12:28:20;10.15;;;6.80;;
34872;SDS011;21084;51.098;14.506;2023-06-22T12:30:50;11.48;;;8.00;;
34872;SDS011;21084;51.098;14.506;2023-06-22T12:33:20;10.55;;;7.45;;
34872;SDS011;21084;51.098;14.506;2023-06-22T12:35:49;8.27;;;7.40;;
34872;SDS011;21084;51.098;14.506;2023-06-22T12:40:48;9.65;;;7.55;;
34872;SDS011;21084;51.098;14.506;2023-06-22T12:43:17;8.50;;;7.45;;
34872;SDS011;21084;51.098;14.506;2023-06-22T12:45:47;9.15;;;8.20;;
34872;SDS011;21084;51.098;14.506;2023-06-22T12:50:45;9.05;;;8.15;;
34872;SDS011;21084;51.098;14.506;2023-06-22T12:53:14;10.25;;;8.27;;
34872;SDS011;21084;51.098;14.506;2023-06-22T12:55:45;9.18;;;8.13;;
34872;SDS011;21084;51.098;14.506;2023-06-22T12:58:14;12.40;;;8.13;;
34872;SDS011;21084;51.098;14.506;2023-06-22T13:00:43;10.43;;;7.93;;
34872;SDS011;21084;51.098;14.506;2023-06-22T13:03:12;9.45;;;8.45;;
34872;SDS011;21084;51.098;14.506;2023-06-22T13:08:10;10.45;;;8.63;;
34872;SDS011;21084;51.098;14.506;2023-06-22T13:10:39;9.88;;;8.30;;
34872;SDS011;21084;51.098;14.506;2023-06-22T13:13:09;9.90;;;7.95;;
34872;SDS011;21084;51.098;14.506;2023-06-22T13:15:38;11.13;;;7.80;;
34872;SDS011;21084;51.098;14.506;2023-06-22T13:20:35;8.40;;;7.68;;
34872;SDS011;21084;51.098;14.506;2023-06-22T13:23:04;8.60;;;7.70;;
34872;SDS011;21084;51.098;14.506;2023-06-22T13:25:33;9.32;;;7.68;;
34872;SDS011;21084;51.098;14.506;2023-06-22T13:28:02;9.48;;;7.60;;
34872;SDS011;21084;51.098;14.506;2023-06-22T13:30:34;9.48;;;7.45;;
34872;SDS011;21084;51.098;14.506;2023-06-22T13:33:03;9.18;;;8.00;;
34872;SDS011;21084;51.098;14.506;2023-06-22T13:35:32;9.45;;;7.60;;
34872;SDS011;21084;51.098;14.506;2023-06-22T13:38:01;9.00;;;8.00;;
34872;SDS011;21084;51.098;14.506;2023-06-22T13:45:28;10.98;;;8.75;;
34872;SDS011;21084;51.098;14.506;2023-06-22T13:47:59;10.50;;;8.40;;
34872;SDS011;21084;51.098;14.506;2023-06-22T13:50:28;8.85;;;7.95;;
34872;SDS011;21084;51.098;14.506;2023-06-22T13:52:57;9.27;;;7.60;;
34872;SDS011;21084;51.098;14.506;2023-06-22T13:57:54;14.13;;;8.55;;
34872;SDS011;21084;51.098;14.506;2023-06-22T14:00:23;11.52;;;8.77;;
34872;SDS011;21084;51.098;14.506;2023-06-22T14:02:52;9.20;;;8.30;;
34872;SDS011;21084;51.098;14.506;2023-06-22T14:05:23;11.48;;;8.50;;
34872;SDS011;21084;51.098;14.506;2023-06-22T14:07:52;10.52;;;8.50;;
34872;SDS011;21084;51.098;14.506;2023-06-22T14:10:21;11.77;;;8.93;;
34872;SDS011;21084;51.098;14.506;2023-06-22T14:12:49;10.98;;;8.75;;
34872;SDS011;21084;51.098;14.506;2023-06-22T14:15:22;12.63;;;9.13;;
34872;SDS011;21084;51.098;14.506;2023-06-22T14:20:20;11.38;;;8.80;;
34872;SDS011;21084;51.098;14.506;2023-06-22T14:22:50;11.05;;;8.68;;
34872;SDS011;21084;51.098;14.506;2023-06-22T14:25:19;11.57;;;8.80;;
34872;SDS011;21084;51.098;14.506;2023-06-22T14:30:17;9.50;;;8.45;;
34872;SDS011;21084;51.098;14.506;2023-06-22T14:32:46;12.65;;;9.10;;
34872;SDS011;21084;51.098;14.506;2023-06-22T14:35:15;12.30;;;9.02;;
34872;SDS011;21084;51.098;14.506;2023-06-22T14:37:43;10.38;;;9.27;;
34872;SDS011;21084;51.098;14.506;2023-06-22T14:40:14;11.82;;;9.13;;
34872;SDS011;21084;51.098;14.506;2023-06-22T14:42:43;12.48;;;9.25;;
34872;SDS011;21084;51.098;14.506;2023-06-22T14:45:12;11.98;;;9.10;;
34872;SDS011;21084;51.098;14.506;2023-06-22T14:47:42;19.73;;;10.20;;
34872;SDS011;21084;51.098;14.506;2023-06-22T14:50:11;10.77;;;9.02;;
34872;SDS011;21084;51.098;14.506;2023-06-22T14:52:40;12.25;;;9.50;;
34872;SDS011;21084;51.098;14.506;2023-06-22T14:57:40;12.75;;;9.27;;
34872;SDS011;21084;51.098;14.506;2023-06-22T15:00:09;14.27;;;9.18;;
34872;SDS011;21084;51.098;14.506;2023-06-22T15:02:38;11.27;;;9.18;;
34872;SDS011;21084;51.098;14.506;2023-06-22T15:05:09;10.65;;;9.13;;
34872;SDS011;21084;51.098;14.506;2023-06-22T15:10:07;10.30;;;9.20;;
34872;SDS011;21084;51.098;14.506;2023-06-22T15:12:36;11.70;;;8.88;;
34872;SDS011;21084;51.098;14.506;2023-06-22T15:15:08;16.27;;;9.20;;
34872;SDS011;21084;51.098;14.506;2023-06-22T15:17:37;14.60;;;9.68;;
34872;SDS011;21084;51.098;14.506;2023-06-22T15:20:06;10.82;;;9.55;;
34872;SDS011;21084;51.098;14.506;2023-06-22T15:22:38;10.55;;;9.43;;
34872;SDS011;21084;51.098;14.506;2023-06-22T15:25:07;13.45;;;9.27;;
34872;SDS011;21084;51.098;14.506;2023-06-22T15:30:05;12.07;;;9.25;;
34872;SDS011;21084;51.098;14.506;2023-06-22T15:32:37;11.65;;;8.77;;
34872;SDS011;21084;51.098;14.506;2023-06-22T15:35:06;13.75;;;10.38;;
34872;SDS011;21084;51.098;14.506;2023-06-22T15:37:35;10.25;;;9.10;;
34872;SDS011;21084;51.098;14.506;2023-06-22T15:40:06;13.20;;;9.48;;
34872;SDS011;21084;51.098;14.506;2023-06-22T15:42:35;11.65;;;10.02;;
34872;SDS011;21084;51.098;14.506;2023-06-22T15:47:36;11.05;;;9.45;;
34872;SDS011;21084;51.098;14.506;2023-06-22T15:50:05;15.15;;;9.95;;
34872;SDS011;21084;51.098;14.506;2023-06-22T15:52:35;18.98;;;9.82;;